Transbunker — UBJE5 — position and weather

sailwx.info

Track history (hours):
 
Tides and Currents Weather Stations Pressure Air Temp Water Temp Dewpoint Dewpoint Depression Visibility Wind Speed Wind Dir Waves Ship Positions

Transbunker

Last reported at 2017-Oct-23 00:30 UTC. Time now 2017-Oct-23 00:57 UTC.
Position N 45°11' E 036°34'.

Length 78 m; draft 5 m.

Type: Tanker. MMSI: 273317910.

Date/timePositionNaut miles runAvg speedWind from/ knotsBaromVisibWave heightAir tempDewpointWater temp
2017-Oct-23 00:30N 45°11' E 036°34'0 0.0
2017-Oct-23 00:00N 45°11' E 036°34'0 0.0
2017-Oct-22 23:27N 45°11' E 036°34'0 0.0
2017-Oct-22 23:00N 45°11' E 036°34'0 0.0
2017-Oct-22 22:30N 45°11' E 036°34'0 0.0
2017-Oct-22 21:57N 45°11' E 036°34'0 0.0
2017-Oct-22 21:27N 45°11' E 036°34'0 0.0
2017-Oct-22 21:00N 45°11' E 036°34'0 0.0
2017-Oct-22 20:30N 45°11' E 036°34'0 0.0
2017-Oct-22 20:00N 45°11' E 036°34'1 0.5
2017-Oct-22 18:51N 45°11' E 036°33'0 0.0
2017-Oct-22 18:30N 45°11' E 036°33'0 0.0
2017-Oct-22 18:00N 45°11' E 036°33'0 0.2
2017-Oct-22 17:30N 45°11' E 036°33'0 0.1
2017-Oct-22 17:00N 45°11' E 036°33'0 0.0
2017-Oct-22 16:30N 45°11' E 036°33'0 0.0
2017-Oct-22 15:45N 45°11' E 036°33'0 0.1
2017-Oct-22 15:27N 45°11' E 036°33'0 0.1
2017-Oct-22 14:54N 45°11' E 036°33'0 0.1
2017-Oct-22 14:27N 45°11' E 036°33'0 0.0
2017-Oct-22 14:00N 45°11' E 036°33'0 0.0
2017-Oct-22 13:30N 45°11' E 036°33'0 0.0
2017-Oct-22 13:00N 45°11' E 036°33'0 0.0
2017-Oct-22 12:30N 45°11' E 036°33'0 0.0
2017-Oct-22 11:57N 45°11' E 036°33'0 0.2
2017-Oct-22 11:30N 45°11' E 036°33'0 0.1
2017-Oct-22 11:00N 45°11' E 036°33'0 0.0
2017-Oct-22 10:30N 45°11' E 036°33'0 0.1
2017-Oct-22 10:00N 45°11' E 036°33'0 0.0
2017-Oct-22 09:27N 45°11' E 036°33'0 0.0
2017-Oct-22 08:57N 45°11' E 036°33'0 0.1
2017-Oct-22 08:30N 45°11' E 036°33'0 0.1
2017-Oct-22 07:54N 45°11' E 036°33'0 0.0
2017-Oct-22 07:30N 45°11' E 036°33'0 0.0
2017-Oct-22 07:00N 45°11' E 036°33'0 0.1
2017-Oct-22 06:27N 45°11' E 036°33'0 0.1
2017-Oct-22 06:00N 45°11' E 036°33'0 0.0
2017-Oct-22 05:30N 45°11' E 036°33'0 0.0
2017-Oct-22 05:00N 45°11' E 036°33'0 0.2
2017-Oct-22 04:30N 45°11' E 036°33'1 0.8
2017-Oct-22 03:03N 45°10' E 036°32'0 0.1
2017-Oct-22 02:51N 45°10' E 036°32'0 0.0
2017-Oct-22 02:18N 45°10' E 036°32'0 0.0
2017-Oct-22 01:57N 45°10' E 036°32'0 0.0
2017-Oct-22 01:18N 45°10' E 036°32'0 0.0
2017-Oct-22 00:15N 45°10' E 036°32'0 0.0
2017-Oct-22 00:00N 45°10' E 036°32'0 0.0
2017-Oct-21 23:30N 45°10' E 036°32'0 0.0
2017-Oct-21 22:48N 45°10' E 036°32'0 0.0
2017-Oct-21 22:24N 45°10' E 036°32'0 0.0
2017-Oct-21 21:00N 45°10' E 036°32'0 0.1
2017-Oct-21 20:21N 45°10' E 036°32'1 2.1
2017-Oct-21 19:59N 45°10' E 036°33'1 2.0
2017-Oct-21 19:27N 45°09' E 036°34'0 0.0
2017-Oct-21 18:54N 45°09' E 036°34'0 0.0
2017-Oct-21 14:39N 45°09' E 036°34'0 0.0
2017-Oct-21 14:27N 45°09' E 036°34'0 0.0
2017-Oct-21 13:00N 45°09' E 036°34'0 0.0
2017-Oct-21 12:30N 45°09' E 036°34'0 0.0
2017-Oct-21 11:48N 45°09' E 036°34'0 0.0
2017-Oct-21 11:21N 45°09' E 036°34'0 0.0
2017-Oct-21 10:54N 45°09' E 036°34'0 0.0
2017-Oct-21 10:24N 45°09' E 036°34'0 0.0
2017-Oct-21 09:54N 45°09' E 036°34'0 0.0
2017-Oct-21 09:21N 45°09' E 036°34'0 0.0
2017-Oct-21 08:57N 45°09' E 036°34'0 0.0
2017-Oct-21 08:27N 45°09' E 036°34'0 0.0
2017-Oct-21 07:57N 45°09' E 036°34'0 0.0
2017-Oct-21 07:21N 45°09' E 036°34'0 0.0
2017-Oct-21 06:57N 45°09' E 036°34'0 0.0
2017-Oct-21 06:30N 45°09' E 036°34'0 0.0
2017-Oct-21 05:54N 45°09' E 036°34'0 0.0
2017-Oct-21 05:30N 45°09' E 036°34'0 0.0
2017-Oct-21 04:57N 45°09' E 036°34'0 0.0
2017-Oct-21 03:52N 45°09' E 036°34'50 5.3
2017-Oct-20 18:23N 44°38' E 037°30'3 6.8
2017-Oct-20 17:57N 44°37' E 037°34'4 7.6
2017-Oct-20 17:29N 44°36' E 037°39'3 7.2
2017-Oct-20 17:00N 44°37' E 037°43'4 7.3
2017-Oct-20 16:30N 44°39' E 037°48'2 4.8
2017-Oct-20 16:01N 44°41' E 037°49'1 1.4
2017-Oct-20 15:30N 44°41' E 037°49'0 0.1
2017-Oct-20 15:00N 44°41' E 037°49'0 0.0
2017-Oct-20 14:00N 44°41' E 037°49'0 0.0
2017-Oct-20 13:30N 44°41' E 037°49'0 0.0
2017-Oct-20 13:00N 44°41' E 037°49'0 0.0
2017-Oct-20 12:30N 44°41' E 037°49'0 0.0
2017-Oct-20 12:00N 44°41' E 037°49'0 0.0
2017-Oct-20 11:30N 44°41' E 037°49'0 0.0
2017-Oct-20 11:00N 44°41' E 037°49'0 0.0
2017-Oct-20 10:30N 44°41' E 037°49'0 0.0
2017-Oct-20 10:00N 44°41' E 037°49'0 0.0
2017-Oct-20 09:30N 44°41' E 037°49'0 0.0
2017-Oct-20 09:00N 44°41' E 037°49'0 0.0
2017-Oct-20 08:30N 44°41' E 037°49'0 0.0
2017-Oct-20 08:00N 44°41' E 037°49'0 0.1
2017-Oct-20 07:30N 44°41' E 037°49'0 0.1
2017-Oct-20 07:00N 44°41' E 037°49'0 0.0
2017-Oct-20 06:30N 44°41' E 037°49'0 0.0
2017-Oct-20 06:00N 44°41' E 037°49'0 0.1
2017-Oct-20 05:30N 44°41' E 037°49'0 0.0
2017-Oct-20 05:00N 44°41' E 037°49'0 0.0
2017-Oct-20 04:30N 44°41' E 037°49'0 0.0
2017-Oct-20 04:00N 44°41' E 037°49'0 0.0
2017-Oct-20 03:30N 44°41' E 037°49'0 0.0
2017-Oct-20 03:00N 44°41' E 037°49'0 0.0
2017-Oct-20 02:30N 44°41' E 037°49'0 0.1
2017-Oct-20 02:00N 44°41' E 037°49'0 0.0
2017-Oct-20 01:30N 44°41' E 037°49'0 0.0
2017-Oct-20 01:00N 44°41' E 037°49'0 0.0
2017-Oct-20 00:30N 44°41' E 037°49'0 0.0
2017-Oct-20 00:00N 44°41' E 037°49'0 0.0
2017-Oct-19 23:30N 44°41' E 037°49'0 0.0
2017-Oct-19 23:00N 44°41' E 037°49'0 0.0
2017-Oct-19 22:30N 44°41' E 037°49'0 0.0
2017-Oct-19 22:00N 44°41' E 037°49'0 0.0
2017-Oct-19 21:30N 44°41' E 037°49'0 0.0
2017-Oct-19 21:00N 44°41' E 037°49'0 0.0
2017-Oct-19 20:30N 44°41' E 037°49'0 0.0
2017-Oct-19 20:00N 44°41' E 037°49'0 0.0
2017-Oct-19 19:30N 44°41' E 037°49'0 0.0
2017-Oct-19 19:00N 44°41' E 037°49'0 0.0
2017-Oct-19 18:30N 44°41' E 037°49'0 0.1
2017-Oct-19 18:00N 44°41' E 037°49'0 0.0
2017-Oct-19 17:30N 44°41' E 037°49'0 0.0
2017-Oct-19 17:00N 44°41' E 037°49'0 0.0
2017-Oct-19 16:30N 44°41' E 037°49'0 0.1
2017-Oct-19 16:00N 44°41' E 037°49'0 0.0
2017-Oct-19 15:30N 44°41' E 037°49'0 0.0
2017-Oct-19 15:00N 44°41' E 037°49'0 0.0
2017-Oct-19 14:30N 44°41' E 037°49'0 0.0
2017-Oct-19 14:00N 44°41' E 037°49'0 0.0
2017-Oct-19 13:30N 44°41' E 037°49'0 0.0
2017-Oct-19 13:00N 44°41' E 037°49'0 0.0
2017-Oct-19 12:30N 44°41' E 037°49'0 0.0
2017-Oct-19 12:00N 44°41' E 037°49'0 0.0
2017-Oct-19 11:30N 44°41' E 037°49'0 0.0
2017-Oct-19 11:00N 44°41' E 037°49'0 0.0
2017-Oct-19 10:30N 44°41' E 037°49'0 0.0
2017-Oct-19 10:00N 44°41' E 037°49'0 0.0
2017-Oct-19 09:30N 44°41' E 037°49'0 0.0
2017-Oct-19 09:00N 44°41' E 037°49'0 0.0
2017-Oct-19 08:30N 44°41' E 037°49'0 0.0
2017-Oct-19 08:00N 44°41' E 037°49'0 0.0
2017-Oct-19 07:30N 44°41' E 037°49'0 0.0
2017-Oct-19 07:00N 44°41' E 037°49'0 0.0
2017-Oct-19 06:30N 44°41' E 037°49'0 0.0
2017-Oct-19 06:00N 44°41' E 037°49'0 0.0
2017-Oct-19 05:30N 44°41' E 037°49'0 0.0
2017-Oct-19 05:00N 44°41' E 037°49'0 0.0
2017-Oct-19 04:30N 44°41' E 037°49'0 0.0
2017-Oct-19 03:30N 44°41' E 037°49'0 0.0
2017-Oct-19 03:00N 44°41' E 037°49'0 0.0
2017-Oct-19 02:30N 44°41' E 037°49'0 0.0
2017-Oct-19 02:00N 44°41' E 037°49'0 0.0
2017-Oct-19 01:30N 44°41' E 037°49'0 0.0
2017-Oct-19 01:00N 44°41' E 037°49'0 0.0
2017-Oct-19 00:30N 44°41' E 037°49'0 0.0
2017-Oct-18 23:30N 44°41' E 037°49'0 0.0
2017-Oct-18 23:00N 44°41' E 037°49'0 0.0
2017-Oct-18 22:30N 44°41' E 037°49'0 0.0
2017-Oct-18 22:00N 44°41' E 037°49'0 0.0
2017-Oct-18 21:30N 44°41' E 037°49'0 0.0
2017-Oct-18 21:00N 44°41' E 037°49'0 0.0
2017-Oct-18 20:30N 44°41' E 037°49'0 0.0
2017-Oct-18 20:00N 44°41' E 037°49'0 0.0
2017-Oct-18 19:30N 44°41' E 037°49'0 0.0
2017-Oct-18 19:00N 44°41' E 037°49'0 0.0
2017-Oct-18 18:30N 44°41' E 037°49'0 0.0
2017-Oct-18 18:00N 44°41' E 037°49'0 0.0
2017-Oct-18 17:30N 44°41' E 037°49'0 0.0
2017-Oct-18 17:00N 44°41' E 037°49'0 0.0
2017-Oct-18 16:30N 44°41' E 037°49'0 0.0
2017-Oct-18 16:00N 44°41' E 037°49'0 0.0
2017-Oct-18 15:30N 44°41' E 037°49'0 0.0
2017-Oct-18 14:00N 44°41' E 037°49'0 0.0
2017-Oct-18 13:30N 44°41' E 037°49'0 0.0
2017-Oct-18 13:00N 44°41' E 037°49'0 0.0
2017-Oct-18 12:30N 44°41' E 037°49'0 0.0
2017-Oct-18 12:00N 44°41' E 037°49'0 0.0
2017-Oct-18 11:30N 44°41' E 037°49'0 0.0
2017-Oct-18 11:00N 44°41' E 037°49'0 0.0
2017-Oct-18 10:30N 44°41' E 037°49'0 0.0
2017-Oct-18 10:00N 44°41' E 037°49'0 0.0
2017-Oct-18 09:30N 44°41' E 037°49'0 0.0
2017-Oct-18 09:00N 44°41' E 037°49'0 0.0
2017-Oct-18 08:30N 44°41' E 037°49'0 0.0
2017-Oct-18 08:00N 44°41' E 037°49'0 0.0
2017-Oct-18 07:30N 44°41' E 037°49'0 0.0
2017-Oct-18 07:00N 44°41' E 037°49'0 0.0
2017-Oct-18 06:30N 44°41' E 037°49'0 0.0
2017-Oct-18 06:00N 44°41' E 037°49'0 0.0
2017-Oct-18 05:30N 44°41' E 037°49'0 0.0
2017-Oct-18 05:00N 44°41' E 037°49'0 0.0
2017-Oct-18 04:30N 44°41' E 037°49'0 0.0
2017-Oct-18 04:00N 44°41' E 037°49'0 0.0
2017-Oct-18 03:30N 44°41' E 037°49'0 0.0
2017-Oct-18 03:00N 44°41' E 037°49'0 0.0
2017-Oct-18 02:30N 44°41' E 037°49'0 0.0
2017-Oct-18 02:00N 44°41' E 037°49'0 0.0
2017-Oct-18 01:30N 44°41' E 037°49'0 0.0
2017-Oct-18 01:00N 44°41' E 037°49'0 0.0
2017-Oct-18 00:30N 44°41' E 037°49'0 0.0
2017-Oct-18 00:00N 44°41' E 037°49'0 0.0
2017-Oct-17 23:30N 44°41' E 037°49'0 0.0
2017-Oct-17 23:00N 44°41' E 037°49'0 0.0
2017-Oct-17 22:30N 44°41' E 037°49'0 0.0
2017-Oct-17 22:00N 44°41' E 037°49'0 0.0
2017-Oct-17 21:30N 44°41' E 037°49'0 0.0
2017-Oct-17 21:00N 44°41' E 037°49'0 0.0
2017-Oct-17 20:30N 44°41' E 037°49'0 0.0
2017-Oct-17 20:00N 44°41' E 037°49'0 0.0
2017-Oct-17 19:30N 44°41' E 037°49'0 0.0
2017-Oct-17 19:00N 44°41' E 037°49'0 0.0
2017-Oct-17 18:30N 44°41' E 037°49'0 0.0
2017-Oct-17 18:00N 44°41' E 037°49'0 0.0
2017-Oct-17 17:30N 44°41' E 037°49'0 0.0
2017-Oct-17 17:00N 44°41' E 037°49'0 0.0
2017-Oct-17 16:30N 44°41' E 037°49'0 0.0
2017-Oct-17 16:00N 44°41' E 037°49'0 0.0
2017-Oct-17 15:30N 44°41' E 037°49'0 0.0
2017-Oct-17 15:00N 44°41' E 037°49'0 0.0
2017-Oct-17 14:30N 44°41' E 037°49'0 0.0
2017-Oct-17 14:00N 44°41' E 037°49'0 0.0
2017-Oct-17 13:30N 44°41' E 037°49'0 0.0
2017-Oct-17 13:00N 44°41' E 037°49'0 0.0
2017-Oct-17 12:30N 44°41' E 037°49'0 0.0
2017-Oct-17 12:00N 44°41' E 037°49'0 0.0
2017-Oct-17 11:30N 44°41' E 037°49'0 0.0
2017-Oct-17 11:00N 44°41' E 037°49'0 0.0
2017-Oct-17 10:30N 44°41' E 037°49'0 0.0
2017-Oct-17 10:00N 44°41' E 037°49'0 0.0
2017-Oct-17 09:30N 44°41' E 037°49'0 0.0
2017-Oct-17 09:00N 44°41' E 037°49'0 0.0
2017-Oct-17 08:30N 44°41' E 037°49'0 0.1
2017-Oct-17 08:00N 44°41' E 037°49'0 0.0
2017-Oct-17 07:30N 44°41' E 037°49'0 0.0
2017-Oct-17 07:00N 44°41' E 037°49'0 0.1
2017-Oct-17 06:30N 44°41' E 037°49'0 0.0
2017-Oct-17 06:00N 44°41' E 037°49'0 0.0
2017-Oct-17 05:30N 44°41' E 037°49'0 0.0
2017-Oct-17 05:00N 44°41' E 037°49'0 0.0
2017-Oct-17 04:30N 44°41' E 037°49'0 0.0
2017-Oct-17 04:00N 44°41' E 037°49'0 0.0
2017-Oct-17 03:15N 44°41' E 037°49'0 0.0
2017-Oct-17 03:00N 44°41' E 037°49'0 0.0
2017-Oct-17 02:30N 44°41' E 037°49'0 0.0
2017-Oct-17 02:00N 44°41' E 037°49'0 0.0
2017-Oct-17 01:30N 44°41' E 037°49'0 0.0
2017-Oct-17 01:00N 44°41' E 037°49'0 0.0
2017-Oct-17 00:30N 44°41' E 037°49'0 0.0
2017-Oct-17 00:00N 44°41' E 037°49'0 0.0
2017-Oct-16 23:30N 44°41' E 037°49'0 0.0
2017-Oct-16 23:00N 44°41' E 037°49'0 0.0
2017-Oct-16 22:30N 44°41' E 037°49'0 0.0
2017-Oct-16 22:00N 44°41' E 037°49'0 0.0
2017-Oct-16 21:30N 44°41' E 037°49'0 0.0
2017-Oct-16 21:00N 44°41' E 037°49'0 0.0
2017-Oct-16 20:30N 44°41' E 037°49'0 0.0
2017-Oct-16 20:00N 44°41' E 037°49'0 0.0
2017-Oct-16 19:30N 44°41' E 037°49'0 0.1
2017-Oct-16 19:00N 44°41' E 037°49'0 0.0
2017-Oct-16 18:06N 44°41' E 037°49'0 0.0
2017-Oct-16 18:00N 44°41' E 037°49'0 0.0
2017-Oct-16 17:30N 44°41' E 037°49'0 0.0
2017-Oct-16 17:00N 44°41' E 037°49'0 0.0
2017-Oct-16 16:30N 44°41' E 037°49'0 0.0
2017-Oct-16 16:00N 44°41' E 037°49'0 0.0
2017-Oct-16 15:30N 44°41' E 037°49'0 0.0
2017-Oct-16 15:00N 44°41' E 037°49'0 0.0
2017-Oct-16 14:30N 44°41' E 037°49'0 0.0
2017-Oct-16 13:30N 44°41' E 037°49'0 0.0
2017-Oct-16 13:00N 44°41' E 037°49'0 0.0
2017-Oct-16 12:30N 44°41' E 037°49'0 0.0
2017-Oct-16 12:00N 44°41' E 037°49'0 0.0
2017-Oct-16 11:30N 44°41' E 037°49'0 0.0
2017-Oct-16 11:00N 44°41' E 037°49'0 0.0
2017-Oct-16 10:30N 44°41' E 037°49'0 0.0
2017-Oct-16 10:00N 44°41' E 037°49'0 0.0
2017-Oct-16 09:30N 44°41' E 037°49'0 0.0
2017-Oct-16 09:00N 44°41' E 037°49'0 0.0
2017-Oct-16 08:30N 44°41' E 037°49'2 3.1
2017-Oct-16 08:00N 44°40' E 037°50'2 3.0
2017-Oct-16 07:30N 44°39' E 037°49'1 2.8
2017-Oct-16 07:00N 44°38' E 037°47'2 4.3
2017-Oct-16 06:30N 44°37' E 037°44'2 4.5
2017-Oct-16 05:59N 44°36' E 037°41'2 4.5
2017-Oct-16 05:30N 44°36' E 037°38'2 4.9
2017-Oct-16 05:00N 44°36' E 037°35'3 4.7
2017-Oct-16 04:26N 44°37' E 037°32'53 4.8
2017-Oct-15 17:26N 45°10' E 036°32'1 0.1
2017-Oct-15 07:06N 45°11' E 036°33'0 3.4
2017-Oct-15 07:00N 45°11' E 036°33'0 0.3
2017-Oct-15 06:27N 45°11' E 036°33'0 0.0
2017-Oct-15 06:00N 45°11' E 036°33'0 0.0
2017-Oct-15 05:30N 45°11' E 036°33'0 0.0
2017-Oct-15 04:57N 45°11' E 036°33'0 0.0
2017-Oct-15 04:27N 45°11' E 036°33'0 0.0
2017-Oct-15 03:59N 45°11' E 036°33'0 0.0
2017-Oct-15 03:30N 45°11' E 036°33'0 0.0
2017-Oct-15 03:00N 45°11' E 036°33'0 0.0
2017-Oct-15 02:30N 45°11' E 036°33'0 0.0
2017-Oct-15 02:00N 45°11' E 036°33'0 0.0
2017-Oct-15 01:30N 45°11' E 036°33'0 0.0
2017-Oct-15 01:00N 45°11' E 036°33'0 0.0
2017-Oct-15 00:30N 45°11' E 036°33'0 0.0
2017-Oct-15 00:00N 45°11' E 036°33'0 0.0
2017-Oct-14 23:30N 45°11' E 036°33'0 0.1
2017-Oct-14 23:00N 45°11' E 036°33'0 0.0
2017-Oct-14 22:30N 45°11' E 036°33'0 0.0
2017-Oct-14 22:00N 45°11' E 036°33'0 0.0
2017-Oct-14 21:29N 45°11' E 036°33'0 0.0
2017-Oct-14 21:00N 45°11' E 036°33'0 0.0
2017-Oct-14 20:30N 45°11' E 036°33'0 0.0
2017-Oct-14 19:59N 45°11' E 036°33'0 0.0
2017-Oct-14 19:29N 45°11' E 036°33'0 0.0
2017-Oct-14 18:59N 45°11' E 036°33'0 0.0
2017-Oct-14 18:30N 45°11' E 036°33'0 0.0
2017-Oct-14 17:55N 45°11' E 036°33'0 0.0
2017-Oct-14 17:31N 45°11' E 036°33'0 0.5
2017-Oct-14 17:00N 45°11' E 036°34'1 1.0
2017-Oct-14 16:09N 45°11' E 036°33'0 0.1
2017-Oct-14 15:57N 45°11' E 036°33'0 0.0
2017-Oct-14 15:24N 45°11' E 036°33'0 0.0
2017-Oct-14 14:54N 45°11' E 036°33'0 0.0
2017-Oct-14 14:24N 45°11' E 036°33'0 0.0
2017-Oct-14 13:54N 45°11' E 036°33'0 0.0
2017-Oct-14 13:27N 45°11' E 036°33'0 0.0
2017-Oct-14 12:57N 45°11' E 036°33'0 0.0
2017-Oct-14 12:30N 45°11' E 036°33'0 0.0
2017-Oct-14 12:00N 45°11' E 036°33'0 0.0
2017-Oct-14 11:30N 45°11' E 036°33'0 0.0
2017-Oct-14 11:00N 45°11' E 036°33'0 0.0
2017-Oct-14 10:27N 45°11' E 036°33'0 0.0
2017-Oct-14 10:00N 45°11' E 036°33'1 1.5
2017-Oct-14 09:30N 45°10' E 036°33'6 5.9
2017-Oct-14 08:34N 45°04' E 036°31'47 4.9
2017-Oct-13 22:57N 44°39' E 037°27'3 5.4
2017-Oct-13 22:29N 44°38' E 037°30'2 5.0
2017-Oct-13 22:00N 44°37' E 037°33'3 5.6
2017-Oct-13 21:30N 44°35' E 037°36'3 6.2
2017-Oct-13 20:59N 44°34' E 037°40'3 6.6
2017-Oct-13 20:30N 44°32' E 037°44'3 5.7
2017-Oct-13 19:59N 44°31' E 037°48'3 5.2
2017-Oct-13 19:30N 44°30' E 037°51'3 5.2
2017-Oct-13 19:00N 44°29' E 037°55'3 5.4
2017-Oct-13 18:30N 44°28' E 037°58'814.3
2017-Oct-13 17:58N 44°36' E 038°01'0 0.0
2017-Oct-13 17:29N 44°36' E 038°01'22 9.9
2017-Oct-13 15:14N 44°19' E 038°22'1 6.1
2017-Oct-13 15:00N 44°19' E 038°24'4 6.2
2017-Oct-13 14:25N 44°17' E 038°29'3 6.0
2017-Oct-13 13:51N 44°16' E 038°33'2 5.9
2017-Oct-13 13:29N 44°15' E 038°36'3 5.7
2017-Oct-13 13:00N 44°13' E 038°39'3 5.7
2017-Oct-13 12:30N 44°12' E 038°43'3 5.8
2017-Oct-13 12:00N 44°11' E 038°46'3 5.8
2017-Oct-13 11:30N 44°09' E 038°50'3 5.8
2017-Oct-13 11:00N 44°08' E 038°53'3 5.8
2017-Oct-13 10:30N 44°07' E 038°57'3 5.8
2017-Oct-13 10:00N 44°06' E 039°01'2 4.9
2017-Oct-13 09:30N 44°05' E 039°04'1 1.1
2017-Oct-13 09:00N 44°06' E 039°04'0 0.0
2017-Oct-13 08:30N 44°06' E 039°04'0 0.0
2017-Oct-13 08:00N 44°06' E 039°04'0 0.0
2017-Oct-13 07:30N 44°06' E 039°04'0 0.0
2017-Oct-13 07:00N 44°06' E 039°04'0 0.0
2017-Oct-13 06:30N 44°06' E 039°04'0 0.0
2017-Oct-13 06:00N 44°06' E 039°04'0 0.0
2017-Oct-13 05:30N 44°06' E 039°04'0 0.0
2017-Oct-13 05:00N 44°06' E 039°04'0 0.0
2017-Oct-13 04:30N 44°06' E 039°04'0 0.0
2017-Oct-13 04:00N 44°06' E 039°04'0 0.0
2017-Oct-13 03:30N 44°06' E 039°04'0 0.0
2017-Oct-13 03:00N 44°06' E 039°04'0 0.0
2017-Oct-13 02:30N 44°06' E 039°04'0 0.0
2017-Oct-13 02:00N 44°06' E 039°04'0 0.0
2017-Oct-13 01:30N 44°06' E 039°04'0 0.0
2017-Oct-13 01:00N 44°06' E 039°04'0 0.0
2017-Oct-13 00:30N 44°06' E 039°04'  
Track history (hours):
 
Tides and Currents Weather Stations Pressure Air Temp Water Temp Dewpoint Dewpoint Depression Visibility Wind Speed Wind Dir Waves Ship Positions

Transbunker

Last reported at 2017-Oct-23 00:30 UTC. Time now 2017-Oct-23 00:57 UTC.
Position N 45°11' E 036°34'.

Length 78 m; draft 5 m.

Type: Tanker. MMSI: 273317910.

Date/timePositionNaut miles runAvg speedWind from/ knotsBaromVisibWave heightAir tempDewpointWater temp
2017-Oct-23 00:30N 45°11' E 036°34'0 0.0
2017-Oct-23 00:00N 45°11' E 036°34'0 0.0
2017-Oct-22 23:27N 45°11' E 036°34'0 0.0
2017-Oct-22 23:00N 45°11' E 036°34'0 0.0
2017-Oct-22 22:30N 45°11' E 036°34'0 0.0
2017-Oct-22 21:57N 45°11' E 036°34'0 0.0
2017-Oct-22 21:27N 45°11' E 036°34'0 0.0
2017-Oct-22 21:00N 45°11' E 036°34'0 0.0
2017-Oct-22 20:30N 45°11' E 036°34'0 0.0
2017-Oct-22 20:00N 45°11' E 036°34'1 0.5
2017-Oct-22 18:51N 45°11' E 036°33'0 0.0
2017-Oct-22 18:30N 45°11' E 036°33'0 0.0
2017-Oct-22 18:00N 45°11' E 036°33'0 0.2
2017-Oct-22 17:30N 45°11' E 036°33'0 0.1
2017-Oct-22 17:00N 45°11' E 036°33'0 0.0
2017-Oct-22 16:30N 45°11' E 036°33'0 0.0
2017-Oct-22 15:45N 45°11' E 036°33'0 0.1
2017-Oct-22 15:27N 45°11' E 036°33'0 0.1
2017-Oct-22 14:54N 45°11' E 036°33'0 0.1
2017-Oct-22 14:27N 45°11' E 036°33'0 0.0
2017-Oct-22 14:00N 45°11' E 036°33'0 0.0
2017-Oct-22 13:30N 45°11' E 036°33'0 0.0
2017-Oct-22 13:00N 45°11' E 036°33'0 0.0
2017-Oct-22 12:30N 45°11' E 036°33'0 0.0
2017-Oct-22 11:57N 45°11' E 036°33'0 0.2
2017-Oct-22 11:30N 45°11' E 036°33'0 0.1
2017-Oct-22 11:00N 45°11' E 036°33'0 0.0
2017-Oct-22 10:30N 45°11' E 036°33'0 0.1
2017-Oct-22 10:00N 45°11' E 036°33'0 0.0
2017-Oct-22 09:27N 45°11' E 036°33'0 0.0
2017-Oct-22 08:57N 45°11' E 036°33'0 0.1
2017-Oct-22 08:30N 45°11' E 036°33'0 0.1
2017-Oct-22 07:54N 45°11' E 036°33'0 0.0
2017-Oct-22 07:30N 45°11' E 036°33'0 0.0
2017-Oct-22 07:00N 45°11' E 036°33'0 0.1
2017-Oct-22 06:27N 45°11' E 036°33'0 0.1
2017-Oct-22 06:00N 45°11' E 036°33'0 0.0
2017-Oct-22 05:30N 45°11' E 036°33'0 0.0
2017-Oct-22 05:00N 45°11' E 036°33'0 0.2
2017-Oct-22 04:30N 45°11' E 036°33'1 0.8
2017-Oct-22 03:03N 45°10' E 036°32'0 0.1
2017-Oct-22 02:51N 45°10' E 036°32'0 0.0
2017-Oct-22 02:18N 45°10' E 036°32'0 0.0
2017-Oct-22 01:57N 45°10' E 036°32'0 0.0
2017-Oct-22 01:18N 45°10' E 036°32'0 0.0
2017-Oct-22 00:15N 45°10' E 036°32'0 0.0
2017-Oct-22 00:00N 45°10' E 036°32'0 0.0
2017-Oct-21 23:30N 45°10' E 036°32'0 0.0
2017-Oct-21 22:48N 45°10' E 036°32'0 0.0
2017-Oct-21 22:24N 45°10' E 036°32'0 0.0
2017-Oct-21 21:00N 45°10' E 036°32'0 0.1
2017-Oct-21 20:21N 45°10' E 036°32'1 2.1
2017-Oct-21 19:59N 45°10' E 036°33'1 2.0
2017-Oct-21 19:27N 45°09' E 036°34'0 0.0
2017-Oct-21 18:54N 45°09' E 036°34'0 0.0
2017-Oct-21 14:39N 45°09' E 036°34'0 0.0
2017-Oct-21 14:27N 45°09' E 036°34'0 0.0
2017-Oct-21 13:00N 45°09' E 036°34'0 0.0
2017-Oct-21 12:30N 45°09' E 036°34'0 0.0
2017-Oct-21 11:48N 45°09' E 036°34'0 0.0
2017-Oct-21 11:21N 45°09' E 036°34'0 0.0
2017-Oct-21 10:54N 45°09' E 036°34'0 0.0
2017-Oct-21 10:24N 45°09' E 036°34'0 0.0
2017-Oct-21 09:54N 45°09' E 036°34'0 0.0
2017-Oct-21 09:21N 45°09' E 036°34'0 0.0
2017-Oct-21 08:57N 45°09' E 036°34'0 0.0
2017-Oct-21 08:27N 45°09' E 036°34'0 0.0
2017-Oct-21 07:57N 45°09' E 036°34'0 0.0
2017-Oct-21 07:21N 45°09' E 036°34'0 0.0
2017-Oct-21 06:57N 45°09' E 036°34'0 0.0
2017-Oct-21 06:30N 45°09' E 036°34'0 0.0
2017-Oct-21 05:54N 45°09' E 036°34'0 0.0
2017-Oct-21 05:30N 45°09' E 036°34'0 0.0
2017-Oct-21 04:57N 45°09' E 036°34'0 0.0
2017-Oct-21 03:52N 45°09' E 036°34'50 5.3
2017-Oct-20 18:23N 44°38' E 037°30'3 6.8
2017-Oct-20 17:57N 44°37' E 037°34'4 7.6
2017-Oct-20 17:29N 44°36' E 037°39'3 7.2
2017-Oct-20 17:00N 44°37' E 037°43'4 7.3
2017-Oct-20 16:30N 44°39' E 037°48'2 4.8
2017-Oct-20 16:01N 44°41' E 037°49'1 1.4
2017-Oct-20 15:30N 44°41' E 037°49'0 0.1
2017-Oct-20 15:00N 44°41' E 037°49'0 0.0
2017-Oct-20 14:00N 44°41' E 037°49'0 0.0
2017-Oct-20 13:30N 44°41' E 037°49'0 0.0
2017-Oct-20 13:00N 44°41' E 037°49'0 0.0
2017-Oct-20 12:30N 44°41' E 037°49'0 0.0
2017-Oct-20 12:00N 44°41' E 037°49'0 0.0
2017-Oct-20 11:30N 44°41' E 037°49'0 0.0
2017-Oct-20 11:00N 44°41' E 037°49'0 0.0
2017-Oct-20 10:30N 44°41' E 037°49'0 0.0
2017-Oct-20 10:00N 44°41' E 037°49'0 0.0
2017-Oct-20 09:30N 44°41' E 037°49'0 0.0
2017-Oct-20 09:00N 44°41' E 037°49'0 0.0
2017-Oct-20 08:30N 44°41' E 037°49'0 0.0
2017-Oct-20 08:00N 44°41' E 037°49'0 0.1
2017-Oct-20 07:30N 44°41' E 037°49'0 0.1
2017-Oct-20 07:00N 44°41' E 037°49'0 0.0
2017-Oct-20 06:30N 44°41' E 037°49'0 0.0
2017-Oct-20 06:00N 44°41' E 037°49'0 0.1
2017-Oct-20 05:30N 44°41' E 037°49'0 0.0
2017-Oct-20 05:00N 44°41' E 037°49'0 0.0
2017-Oct-20 04:30N 44°41' E 037°49'0 0.0
2017-Oct-20 04:00N 44°41' E 037°49'0 0.0
2017-Oct-20 03:30N 44°41' E 037°49'0 0.0
2017-Oct-20 03:00N 44°41' E 037°49'0 0.0
2017-Oct-20 02:30N 44°41' E 037°49'0 0.1
2017-Oct-20 02:00N 44°41' E 037°49'0 0.0
2017-Oct-20 01:30N 44°41' E 037°49'0 0.0
2017-Oct-20 01:00N 44°41' E 037°49'0 0.0
2017-Oct-20 00:30N 44°41' E 037°49'0 0.0
2017-Oct-20 00:00N 44°41' E 037°49'0 0.0
2017-Oct-19 23:30N 44°41' E 037°49'0 0.0
2017-Oct-19 23:00N 44°41' E 037°49'0 0.0
2017-Oct-19 22:30N 44°41' E 037°49'0 0.0
2017-Oct-19 22:00N 44°41' E 037°49'0 0.0
2017-Oct-19 21:30N 44°41' E 037°49'0 0.0
2017-Oct-19 21:00N 44°41' E 037°49'0 0.0
2017-Oct-19 20:30N 44°41' E 037°49'0 0.0
2017-Oct-19 20:00N 44°41' E 037°49'0 0.0
2017-Oct-19 19:30N 44°41' E 037°49'0 0.0
2017-Oct-19 19:00N 44°41' E 037°49'0 0.0
2017-Oct-19 18:30N 44°41' E 037°49'0 0.1
2017-Oct-19 18:00N 44°41' E 037°49'0 0.0
2017-Oct-19 17:30N 44°41' E 037°49'0 0.0
2017-Oct-19 17:00N 44°41' E 037°49'0 0.0
2017-Oct-19 16:30N 44°41' E 037°49'0 0.1
2017-Oct-19 16:00N 44°41' E 037°49'0 0.0
2017-Oct-19 15:30N 44°41' E 037°49'0 0.0
2017-Oct-19 15:00N 44°41' E 037°49'0 0.0
2017-Oct-19 14:30N 44°41' E 037°49'0 0.0
2017-Oct-19 14:00N 44°41' E 037°49'0 0.0
2017-Oct-19 13:30N 44°41' E 037°49'0 0.0
2017-Oct-19 13:00N 44°41' E 037°49'0 0.0
2017-Oct-19 12:30N 44°41' E 037°49'0 0.0
2017-Oct-19 12:00N 44°41' E 037°49'0 0.0
2017-Oct-19 11:30N 44°41' E 037°49'0 0.0
2017-Oct-19 11:00N 44°41' E 037°49'0 0.0
2017-Oct-19 10:30N 44°41' E 037°49'0 0.0
2017-Oct-19 10:00N 44°41' E 037°49'0 0.0
2017-Oct-19 09:30N 44°41' E 037°49'0 0.0
2017-Oct-19 09:00N 44°41' E 037°49'0 0.0
2017-Oct-19 08:30N 44°41' E 037°49'0 0.0
2017-Oct-19 08:00N 44°41' E 037°49'0 0.0
2017-Oct-19 07:30N 44°41' E 037°49'0 0.0
2017-Oct-19 07:00N 44°41' E 037°49'0 0.0
2017-Oct-19 06:30N 44°41' E 037°49'0 0.0
2017-Oct-19 06:00N 44°41' E 037°49'0 0.0
2017-Oct-19 05:30N 44°41' E 037°49'0 0.0
2017-Oct-19 05:00N 44°41' E 037°49'0 0.0
2017-Oct-19 04:30N 44°41' E 037°49'0 0.0
2017-Oct-19 03:30N 44°41' E 037°49'0 0.0
2017-Oct-19 03:00N 44°41' E 037°49'0 0.0
2017-Oct-19 02:30N 44°41' E 037°49'0 0.0
2017-Oct-19 02:00N 44°41' E 037°49'0 0.0
2017-Oct-19 01:30N 44°41' E 037°49'0 0.0
2017-Oct-19 01:00N 44°41' E 037°49'0 0.0
2017-Oct-19 00:30N 44°41' E 037°49'0 0.0
2017-Oct-18 23:30N 44°41' E 037°49'0 0.0
2017-Oct-18 23:00N 44°41' E 037°49'0 0.0
2017-Oct-18 22:30N 44°41' E 037°49'0 0.0
2017-Oct-18 22:00N 44°41' E 037°49'0 0.0
2017-Oct-18 21:30N 44°41' E 037°49'0 0.0
2017-Oct-18 21:00N 44°41' E 037°49'0 0.0
2017-Oct-18 20:30N 44°41' E 037°49'0 0.0
2017-Oct-18 20:00N 44°41' E 037°49'0 0.0
2017-Oct-18 19:30N 44°41' E 037°49'0 0.0
2017-Oct-18 19:00N 44°41' E 037°49'0 0.0
2017-Oct-18 18:30N 44°41' E 037°49'0 0.0
2017-Oct-18 18:00N 44°41' E 037°49'0 0.0
2017-Oct-18 17:30N 44°41' E 037°49'0 0.0
2017-Oct-18 17:00N 44°41' E 037°49'0 0.0
2017-Oct-18 16:30N 44°41' E 037°49'0 0.0
2017-Oct-18 16:00N 44°41' E 037°49'0 0.0
2017-Oct-18 15:30N 44°41' E 037°49'0 0.0
2017-Oct-18 14:00N 44°41' E 037°49'0 0.0
2017-Oct-18 13:30N 44°41' E 037°49'0 0.0
2017-Oct-18 13:00N 44°41' E 037°49'0 0.0
2017-Oct-18 12:30N 44°41' E 037°49'0 0.0
2017-Oct-18 12:00N 44°41' E 037°49'0 0.0
2017-Oct-18 11:30N 44°41' E 037°49'0 0.0
2017-Oct-18 11:00N 44°41' E 037°49'0 0.0
2017-Oct-18 10:30N 44°41' E 037°49'0 0.0
2017-Oct-18 10:00N 44°41' E 037°49'0 0.0
2017-Oct-18 09:30N 44°41' E 037°49'0 0.0
2017-Oct-18 09:00N 44°41' E 037°49'0 0.0
2017-Oct-18 08:30N 44°41' E 037°49'0 0.0
2017-Oct-18 08:00N 44°41' E 037°49'0 0.0
2017-Oct-18 07:30N 44°41' E 037°49'0 0.0
2017-Oct-18 07:00N 44°41' E 037°49'0 0.0
2017-Oct-18 06:30N 44°41' E 037°49'0 0.0
2017-Oct-18 06:00N 44°41' E 037°49'0 0.0
2017-Oct-18 05:30N 44°41' E 037°49'0 0.0
2017-Oct-18 05:00N 44°41' E 037°49'0 0.0
2017-Oct-18 04:30N 44°41' E 037°49'0 0.0
2017-Oct-18 04:00N 44°41' E 037°49'0 0.0
2017-Oct-18 03:30N 44°41' E 037°49'0 0.0
2017-Oct-18 03:00N 44°41' E 037°49'0 0.0
2017-Oct-18 02:30N 44°41' E 037°49'0 0.0
2017-Oct-18 02:00N 44°41' E 037°49'0 0.0
2017-Oct-18 01:30N 44°41' E 037°49'0 0.0
2017-Oct-18 01:00N 44°41' E 037°49'0 0.0
2017-Oct-18 00:30N 44°41' E 037°49'0 0.0
2017-Oct-18 00:00N 44°41' E 037°49'0 0.0
2017-Oct-17 23:30N 44°41' E 037°49'0 0.0
2017-Oct-17 23:00N 44°41' E 037°49'0 0.0
2017-Oct-17 22:30N 44°41' E 037°49'0 0.0
2017-Oct-17 22:00N 44°41' E 037°49'0 0.0
2017-Oct-17 21:30N 44°41' E 037°49'0 0.0
2017-Oct-17 21:00N 44°41' E 037°49'0 0.0
2017-Oct-17 20:30N 44°41' E 037°49'0 0.0
2017-Oct-17 20:00N 44°41' E 037°49'0 0.0
2017-Oct-17 19:30N 44°41' E 037°49'0 0.0
2017-Oct-17 19:00N 44°41' E 037°49'0 0.0
2017-Oct-17 18:30N 44°41' E 037°49'0 0.0
2017-Oct-17 18:00N 44°41' E 037°49'0 0.0
2017-Oct-17 17:30N 44°41' E 037°49'0 0.0
2017-Oct-17 17:00N 44°41' E 037°49'0 0.0
2017-Oct-17 16:30N 44°41' E 037°49'0 0.0
2017-Oct-17 16:00N 44°41' E 037°49'0 0.0
2017-Oct-17 15:30N 44°41' E 037°49'0 0.0
2017-Oct-17 15:00N 44°41' E 037°49'0 0.0
2017-Oct-17 14:30N 44°41' E 037°49'0 0.0
2017-Oct-17 14:00N 44°41' E 037°49'0 0.0
2017-Oct-17 13:30N 44°41' E 037°49'0 0.0
2017-Oct-17 13:00N 44°41' E 037°49'0 0.0
2017-Oct-17 12:30N 44°41' E 037°49'0 0.0
2017-Oct-17 12:00N 44°41' E 037°49'0 0.0
2017-Oct-17 11:30N 44°41' E 037°49'0 0.0
2017-Oct-17 11:00N 44°41' E 037°49'0 0.0
2017-Oct-17 10:30N 44°41' E 037°49'0 0.0
2017-Oct-17 10:00N 44°41' E 037°49'0 0.0
2017-Oct-17 09:30N 44°41' E 037°49'0 0.0
2017-Oct-17 09:00N 44°41' E 037°49'0 0.0
2017-Oct-17 08:30N 44°41' E 037°49'0 0.1
2017-Oct-17 08:00N 44°41' E 037°49'0 0.0
2017-Oct-17 07:30N 44°41' E 037°49'0 0.0
2017-Oct-17 07:00N 44°41' E 037°49'0 0.1
2017-Oct-17 06:30N 44°41' E 037°49'0 0.0
2017-Oct-17 06:00N 44°41' E 037°49'0 0.0
2017-Oct-17 05:30N 44°41' E 037°49'0 0.0
2017-Oct-17 05:00N 44°41' E 037°49'0 0.0
2017-Oct-17 04:30N 44°41' E 037°49'0 0.0
2017-Oct-17 04:00N 44°41' E 037°49'0 0.0
2017-Oct-17 03:15N 44°41' E 037°49'0 0.0
2017-Oct-17 03:00N 44°41' E 037°49'0 0.0
2017-Oct-17 02:30N 44°41' E 037°49'0 0.0
2017-Oct-17 02:00N 44°41' E 037°49'0 0.0
2017-Oct-17 01:30N 44°41' E 037°49'0 0.0
2017-Oct-17 01:00N 44°41' E 037°49'0 0.0
2017-Oct-17 00:30N 44°41' E 037°49'0 0.0
2017-Oct-17 00:00N 44°41' E 037°49'0 0.0
2017-Oct-16 23:30N 44°41' E 037°49'0 0.0
2017-Oct-16 23:00N 44°41' E 037°49'0 0.0
2017-Oct-16 22:30N 44°41' E 037°49'0 0.0
2017-Oct-16 22:00N 44°41' E 037°49'0 0.0
2017-Oct-16 21:30N 44°41' E 037°49'0 0.0
2017-Oct-16 21:00N 44°41' E 037°49'0 0.0
2017-Oct-16 20:30N 44°41' E 037°49'0 0.0
2017-Oct-16 20:00N 44°41' E 037°49'0 0.0
2017-Oct-16 19:30N 44°41' E 037°49'0 0.1
2017-Oct-16 19:00N 44°41' E 037°49'0 0.0
2017-Oct-16 18:06N 44°41' E 037°49'0 0.0
2017-Oct-16 18:00N 44°41' E 037°49'0 0.0
2017-Oct-16 17:30N 44°41' E 037°49'0 0.0
2017-Oct-16 17:00N 44°41' E 037°49'0 0.0
2017-Oct-16 16:30N 44°41' E 037°49'0 0.0
2017-Oct-16 16:00N 44°41' E 037°49'0 0.0
2017-Oct-16 15:30N 44°41' E 037°49'0 0.0
2017-Oct-16 15:00N 44°41' E 037°49'0 0.0
2017-Oct-16 14:30N 44°41' E 037°49'0 0.0
2017-Oct-16 13:30N 44°41' E 037°49'0 0.0
2017-Oct-16 13:00N 44°41' E 037°49'0 0.0
2017-Oct-16 12:30N 44°41' E 037°49'0 0.0
2017-Oct-16 12:00N 44°41' E 037°49'0 0.0
2017-Oct-16 11:30N 44°41' E 037°49'0 0.0
2017-Oct-16 11:00N 44°41' E 037°49'0 0.0
2017-Oct-16 10:30N 44°41' E 037°49'0 0.0
2017-Oct-16 10:00N 44°41' E 037°49'0 0.0
2017-Oct-16 09:30N 44°41' E 037°49'0 0.0
2017-Oct-16 09:00N 44°41' E 037°49'0 0.0
2017-Oct-16 08:30N 44°41' E 037°49'2 3.1
2017-Oct-16 08:00N 44°40' E 037°50'2 3.0
2017-Oct-16 07:30N 44°39' E 037°49'1 2.8
2017-Oct-16 07:00N 44°38' E 037°47'2 4.3
2017-Oct-16 06:30N 44°37' E 037°44'2 4.5
2017-Oct-16 05:59N 44°36' E 037°41'2 4.5
2017-Oct-16 05:30N 44°36' E 037°38'2 4.9
2017-Oct-16 05:00N 44°36' E 037°35'3 4.7
2017-Oct-16 04:26N 44°37' E 037°32'53 4.8
2017-Oct-15 17:26N 45°10' E 036°32'1 0.1
2017-Oct-15 07:06N 45°11' E 036°33'0 3.4
2017-Oct-15 07:00N 45°11' E 036°33'0 0.3
2017-Oct-15 06:27N 45°11' E 036°33'0 0.0
2017-Oct-15 06:00N 45°11' E 036°33'0 0.0
2017-Oct-15 05:30N 45°11' E 036°33'0 0.0
2017-Oct-15 04:57N 45°11' E 036°33'0 0.0
2017-Oct-15 04:27N 45°11' E 036°33'0 0.0
2017-Oct-15 03:59N 45°11' E 036°33'0 0.0
2017-Oct-15 03:30N 45°11' E 036°33'0 0.0
2017-Oct-15 03:00N 45°11' E 036°33'0 0.0
2017-Oct-15 02:30N 45°11' E 036°33'0 0.0
2017-Oct-15 02:00N 45°11' E 036°33'0 0.0
2017-Oct-15 01:30N 45°11' E 036°33'0 0.0
2017-Oct-15 01:00N 45°11' E 036°33'0 0.0
2017-Oct-15 00:30N 45°11' E 036°33'0 0.0
2017-Oct-15 00:00N 45°11' E 036°33'0 0.0
2017-Oct-14 23:30N 45°11' E 036°33'0 0.1
2017-Oct-14 23:00N 45°11' E 036°33'0 0.0
2017-Oct-14 22:30N 45°11' E 036°33'0 0.0
2017-Oct-14 22:00N 45°11' E 036°33'0 0.0
2017-Oct-14 21:29N 45°11' E 036°33'0 0.0
2017-Oct-14 21:00N 45°11' E 036°33'0 0.0
2017-Oct-14 20:30N 45°11' E 036°33'0 0.0
2017-Oct-14 19:59N 45°11' E 036°33'0 0.0
2017-Oct-14 19:29N 45°11' E 036°33'0 0.0
2017-Oct-14 18:59N 45°11' E 036°33'0 0.0
2017-Oct-14 18:30N 45°11' E 036°33'0 0.0
2017-Oct-14 17:55N 45°11' E 036°33'0 0.0
2017-Oct-14 17:31N 45°11' E 036°33'0 0.5
2017-Oct-14 17:00N 45°11' E 036°34'1 1.0
2017-Oct-14 16:09N 45°11' E 036°33'0 0.1
2017-Oct-14 15:57N 45°11' E 036°33'0 0.0
2017-Oct-14 15:24N 45°11' E 036°33'0 0.0
2017-Oct-14 14:54N 45°11' E 036°33'0 0.0
2017-Oct-14 14:24N 45°11' E 036°33'0 0.0
2017-Oct-14 13:54N 45°11' E 036°33'0 0.0
2017-Oct-14 13:27N 45°11' E 036°33'0 0.0
2017-Oct-14 12:57N 45°11' E 036°33'0 0.0
2017-Oct-14 12:30N 45°11' E 036°33'0 0.0
2017-Oct-14 12:00N 45°11' E 036°33'0 0.0
2017-Oct-14 11:30N 45°11' E 036°33'0 0.0
2017-Oct-14 11:00N 45°11' E 036°33'0 0.0
2017-Oct-14 10:27N 45°11' E 036°33'0 0.0
2017-Oct-14 10:00N 45°11' E 036°33'1 1.5
2017-Oct-14 09:30N 45°10' E 036°33'6 5.9
2017-Oct-14 08:34N 45°04' E 036°31'47 4.9
2017-Oct-13 22:57N 44°39' E 037°27'3 5.4
2017-Oct-13 22:29N 44°38' E 037°30'2 5.0
2017-Oct-13 22:00N 44°37' E 037°33'3 5.6
2017-Oct-13 21:30N 44°35' E 037°36'3 6.2
2017-Oct-13 20:59N 44°34' E 037°40'3 6.6
2017-Oct-13 20:30N 44°32' E 037°44'3 5.7
2017-Oct-13 19:59N 44°31' E 037°48'3 5.2
2017-Oct-13 19:30N 44°30' E 037°51'3 5.2
2017-Oct-13 19:00N 44°29' E 037°55'3 5.4
2017-Oct-13 18:30N 44°28' E 037°58'814.3
2017-Oct-13 17:58N 44°36' E 038°01'0 0.0
2017-Oct-13 17:29N 44°36' E 038°01'22 9.9
2017-Oct-13 15:14N 44°19' E 038°22'1 6.1
2017-Oct-13 15:00N 44°19' E 038°24'4 6.2
2017-Oct-13 14:25N 44°17' E 038°29'3 6.0
2017-Oct-13 13:51N 44°16' E 038°33'2 5.9
2017-Oct-13 13:29N 44°15' E 038°36'3 5.7
2017-Oct-13 13:00N 44°13' E 038°39'3 5.7
2017-Oct-13 12:30N 44°12' E 038°43'3 5.8
2017-Oct-13 12:00N 44°11' E 038°46'3 5.8
2017-Oct-13 11:30N 44°09' E 038°50'3 5.8
2017-Oct-13 11:00N 44°08' E 038°53'3 5.8
2017-Oct-13 10:30N 44°07' E 038°57'3 5.8
2017-Oct-13 10:00N 44°06' E 039°01'2 4.9
2017-Oct-13 09:30N 44°05' E 039°04'1 1.1
2017-Oct-13 09:00N 44°06' E 039°04'0 0.0
2017-Oct-13 08:30N 44°06' E 039°04'0 0.0
2017-Oct-13 08:00N 44°06' E 039°04'0 0.0
2017-Oct-13 07:30N 44°06' E 039°04'0 0.0
2017-Oct-13 07:00N 44°06' E 039°04'0 0.0
2017-Oct-13 06:30N 44°06' E 039°04'0 0.0
2017-Oct-13 06:00N 44°06' E 039°04'0 0.0
2017-Oct-13 05:30N 44°06' E 039°04'0 0.0
2017-Oct-13 05:00N 44°06' E 039°04'0 0.0
2017-Oct-13 04:30N 44°06' E 039°04'0 0.0
2017-Oct-13 04:00N 44°06' E 039°04'0 0.0
2017-Oct-13 03:30N 44°06' E 039°04'0 0.0
2017-Oct-13 03:00N 44°06' E 039°04'0 0.0
2017-Oct-13 02:30N 44°06' E 039°04'0 0.0
2017-Oct-13 02:00N 44°06' E 039°04'0 0.0
2017-Oct-13 01:30N 44°06' E 039°04'0 0.0
2017-Oct-13 01:00N 44°06' E 039°04'0 0.0
2017-Oct-13 00:30N 44°06' E 039°04'  

Dump ship's entire track history